sensor_id;sensor_type;location;lat;lon;timestamp;temperature;humidity
33508;DHT22;25568;37.410;-122.096;2023-02-19T00:02:10;19.00;57.60
33508;DHT22;25568;37.410;-122.096;2023-02-19T00:04:39;19.00;57.80
33508;DHT22;25568;37.410;-122.096;2023-02-19T00:07:09;19.00;57.80
33508;DHT22;25568;37.410;-122.096;2023-02-19T00:09:38;19.00;57.60
33508;DHT22;25568;37.410;-122.096;2023-02-19T00:12:07;19.00;58.00
33508;DHT22;25568;37.410;-122.096;2023-02-19T00:14:36;19.00;57.70
33508;DHT22;25568;37.410;-122.096;2023-02-19T00:17:05;19.10;57.70
33508;DHT22;25568;37.410;-122.096;2023-02-19T00:19:34;19.10;57.80
33508;DHT22;25568;37.410;-122.096;2023-02-19T00:22:02;19.10;57.70
33508;DHT22;25568;37.410;-122.096;2023-02-19T00:24:33;19.10;57.60
33508;DHT22;25568;37.410;-122.096;2023-02-19T00:27:02;19.10;57.50
33508;DHT22;25568;37.410;-122.096;2023-02-19T00:29:31;19.10;57.50
33508;DHT22;25568;37.410;-122.096;2023-02-19T00:32:00;19.10;57.40
33508;DHT22;25568;37.410;-122.096;2023-02-19T00:34:29;19.10;57.40
33508;DHT22;25568;37.410;-122.096;2023-02-19T00:36:57;19.10;57.50
33508;DHT22;25568;37.410;-122.096;2023-02-19T00:39:27;19.10;58.30
33508;DHT22;25568;37.410;-122.096;2023-02-19T00:41:58;19.10;58.00
33508;DHT22;25568;37.410;-122.096;2023-02-19T00:44:28;19.10;58.30
33508;DHT22;25568;37.410;-122.096;2023-02-19T00:46:56;19.10;58.60
33508;DHT22;25568;37.410;-122.096;2023-02-19T00:49:26;19.20;58.80
33508;DHT22;25568;37.410;-122.096;2023-02-19T00:51:55;19.20;59.00
33508;DHT22;25568;37.410;-122.096;2023-02-19T00:54:23;19.20;59.20
33508;DHT22;25568;37.410;-122.096;2023-02-19T00:56:53;19.20;59.20
33508;DHT22;25568;37.410;-122.096;2023-02-19T00:59:24;19.20;59.20
33508;DHT22;25568;37.410;-122.096;2023-02-19T01:01:53;19.20;59.30
33508;DHT22;25568;37.410;-122.096;2023-02-19T01:04:21;19.20;59.30
33508;DHT22;25568;37.410;-122.096;2023-02-19T01:06:50;19.30;59.40
33508;DHT22;25568;37.410;-122.096;2023-02-19T01:09:19;19.20;59.40
33508;DHT22;25568;37.410;-122.096;2023-02-19T01:11:48;19.20;59.40
33508;DHT22;25568;37.410;-122.096;2023-02-19T01:14:17;19.20;59.40
33508;DHT22;25568;37.410;-122.096;2023-02-19T01:16:48;19.20;59.40
33508;DHT22;25568;37.410;-122.096;2023-02-19T01:19:16;19.30;59.60
33508;DHT22;25568;37.410;-122.096;2023-02-19T01:21:45;19.30;59.60
33508;DHT22;25568;37.410;-122.096;2023-02-19T01:24:14;19.30;59.70
33508;DHT22;25568;37.410;-122.096;2023-02-19T01:26:43;19.30;59.70
33508;DHT22;25568;37.410;-122.096;2023-02-19T01:29:12;19.30;59.80
33508;DHT22;25568;37.410;-122.096;2023-02-19T01:31:41;19.30;59.80
33508;DHT22;25568;37.410;-122.096;2023-02-19T01:34:11;19.30;59.80
33508;DHT22;25568;37.410;-122.096;2023-02-19T01:36:40;19.30;59.80
33508;DHT22;25568;37.410;-122.096;2023-02-19T01:39:10;19.30;59.80
33508;DHT22;25568;37.410;-122.096;2023-02-19T01:41:40;19.30;59.90
33508;DHT22;25568;37.410;-122.096;2023-02-19T01:47:10;19.30;59.90
33508;DHT22;25568;37.410;-122.096;2023-02-19T01:49:43;19.30;60.00
33508;DHT22;25568;37.410;-122.096;2023-02-19T01:52:17;19.30;59.90
33508;DHT22;25568;37.410;-122.096;2023-02-19T01:54:48;19.30;60.00
33508;DHT22;25568;37.410;-122.096;2023-02-19T01:57:20;19.30;60.00
33508;DHT22;25568;37.410;-122.096;2023-02-19T01:59:55;19.30;60.00
33508;DHT22;25568;37.410;-122.096;2023-02-19T02:02:25;19.30;60.00
33508;DHT22;25568;37.410;-122.096;2023-02-19T02:04:57;19.30;60.00
33508;DHT22;25568;37.410;-122.096;2023-02-19T02:07:27;19.30;60.00
33508;DHT22;25568;37.410;-122.096;2023-02-19T02:10:13;19.30;60.30
33508;DHT22;25568;37.410;-122.096;2023-02-19T02:12:48;19.30;60.50
33508;DHT22;25568;37.410;-122.096;2023-02-19T02:15:18;19.30;60.60
33508;DHT22;25568;37.410;-122.096;2023-02-19T02:17:55;19.30;60.70
33508;DHT22;25568;37.410;-122.096;2023-02-19T02:20:34;19.40;60.50
33508;DHT22;25568;37.410;-122.096;2023-02-19T02:23:15;19.40;60.40
33508;DHT22;25568;37.410;-122.096;2023-02-19T02:26:04;19.50;59.40
33508;DHT22;25568;37.410;-122.096;2023-02-19T02:29:10;19.50;59.50
33508;DHT22;25568;37.410;-122.096;2023-02-19T02:31:50;19.50;58.90
33508;DHT22;25568;37.410;-122.096;2023-02-19T02:34:24;19.50;59.50
33508;DHT22;25568;37.410;-122.096;2023-02-19T02:36:55;19.50;59.70
33508;DHT22;25568;37.410;-122.096;2023-02-19T02:39:27;19.40;59.90
33508;DHT22;25568;37.410;-122.096;2023-02-19T02:41:59;19.40;59.90
33508;DHT22;25568;37.410;-122.096;2023-02-19T02:44:45;19.40;59.90
33508;DHT22;25568;37.410;-122.096;2023-02-19T02:47:38;19.40;60.00
33508;DHT22;25568;37.410;-122.096;2023-02-19T02:50:10;19.40;60.00
33508;DHT22;25568;37.410;-122.096;2023-02-19T02:52:42;19.40;60.00
33508;DHT22;25568;37.410;-122.096;2023-02-19T02:55:32;19.40;60.40
33508;DHT22;25568;37.410;-122.096;2023-02-19T02:58:04;19.40;60.30
33508;DHT22;25568;37.410;-122.096;2023-02-19T03:00:35;19.30;60.20
33508;DHT22;25568;37.410;-122.096;2023-02-19T03:03:21;19.30;60.40
33508;DHT22;25568;37.410;-122.096;2023-02-19T03:05:53;19.30;60.40
33508;DHT22;25568;37.410;-122.096;2023-02-19T03:08:28;19.30;60.40
33508;DHT22;25568;37.410;-122.096;2023-02-19T03:10:59;19.30;60.50
33508;DHT22;25568;37.410;-122.096;2023-02-19T03:13:52;19.30;60.60
33508;DHT22;25568;37.410;-122.096;2023-02-19T03:16:39;19.30;60.60
33508;DHT22;25568;37.410;-122.096;2023-02-19T03:19:30;19.30;60.90
33508;DHT22;25568;37.410;-122.096;2023-02-19T03:22:07;19.30;60.80
33508;DHT22;25568;37.410;-122.096;2023-02-19T03:24:43;19.30;61.00
33508;DHT22;25568;37.410;-122.096;2023-02-19T03:27:32;19.30;60.90
33508;DHT22;25568;37.410;-122.096;2023-02-19T03:30:07;19.30;61.00
33508;DHT22;25568;37.410;-122.096;2023-02-19T03:32:41;19.30;61.10
33508;DHT22;25568;37.410;-122.096;2023-02-19T03:35:15;19.20;61.30
33508;DHT22;25568;37.410;-122.096;2023-02-19T03:37:49;19.20;61.40
33508;DHT22;25568;37.410;-122.096;2023-02-19T03:40:20;19.20;61.60
33508;DHT22;25568;37.410;-122.096;2023-02-19T03:42:58;19.20;61.70
33508;DHT22;25568;37.410;-122.096;2023-02-19T03:45:36;19.20;61.80
33508;DHT22;25568;37.410;-122.096;2023-02-19T03:48:17;19.20;62.00
33508;DHT22;25568;37.410;-122.096;2023-02-19T03:50:55;19.20;62.00
33508;DHT22;25568;37.410;-122.096;2023-02-19T03:53:30;19.20;62.00
33508;DHT22;25568;37.410;-122.096;2023-02-19T03:56:06;19.10;62.20
33508;DHT22;25568;37.410;-122.096;2023-02-19T03:58:41;19.10;62.10
33508;DHT22;25568;37.410;-122.096;2023-02-19T04:01:18;19.10;62.30
33508;DHT22;25568;37.410;-122.096;2023-02-19T04:03:52;19.10;62.50
33508;DHT22;25568;37.410;-122.096;2023-02-19T04:06:27;19.10;62.70
33508;DHT22;25568;37.410;-122.096;2023-02-19T04:08:59;19.10;62.80
33508;DHT22;25568;37.410;-122.096;2023-02-19T04:11:30;19.10;63.00
33508;DHT22;25568;37.410;-122.096;2023-02-19T04:14:03;19.10;63.10
33508;DHT22;25568;37.410;-122.096;2023-02-19T04:16:37;19.00;63.20
33508;DHT22;25568;37.410;-122.096;2023-02-19T04:19:11;19.10;63.90
33508;DHT22;25568;37.410;-122.096;2023-02-19T04:21:44;19.00;64.60
33508;DHT22;25568;37.410;-122.096;2023-02-19T04:24:17;19.00;64.80
33508;DHT22;25568;37.410;-122.096;2023-02-19T04:26:46;19.00;65.00
33508;DHT22;25568;37.410;-122.096;2023-02-19T04:29:15;19.00;65.00
33508;DHT22;25568;37.410;-122.096;2023-02-19T04:31:44;19.00;65.10
33508;DHT22;25568;37.410;-122.096;2023-02-19T04:34:13;19.00;65.30
33508;DHT22;25568;37.410;-122.096;2023-02-19T04:36:44;19.00;65.40
33508;DHT22;25568;37.410;-122.096;2023-02-19T04:39:13;19.00;65.70
33508;DHT22;25568;37.410;-122.096;2023-02-19T04:41:41;19.00;65.90
33508;DHT22;25568;37.410;-122.096;2023-02-19T04:44:10;19.00;66.00
33508;DHT22;25568;37.410;-122.096;2023-02-19T04:46:40;18.90;66.10
33508;DHT22;25568;37.410;-122.096;2023-02-19T04:49:08;18.90;66.10
33508;DHT22;25568;37.410;-122.096;2023-02-19T04:51:38;18.90;66.20
33508;DHT22;25568;37.410;-122.096;2023-02-19T04:54:09;18.90;66.40
33508;DHT22;25568;37.410;-122.096;2023-02-19T04:56:39;18.90;66.50
33508;DHT22;25568;37.410;-122.096;2023-02-19T04:59:07;18.90;66.70
33508;DHT22;25568;37.410;-122.096;2023-02-19T05:01:37;18.90;66.80
33508;DHT22;25568;37.410;-122.096;2023-02-19T05:04:06;18.90;66.70
33508;DHT22;25568;37.410;-122.096;2023-02-19T05:06:35;18.80;66.70
33508;DHT22;25568;37.410;-122.096;2023-02-19T05:09:04;18.80;66.90
33508;DHT22;25568;37.410;-122.096;2023-02-19T05:11:34;18.80;66.90
33508;DHT22;25568;37.410;-122.096;2023-02-19T05:14:03;18.80;66.90
33508;DHT22;25568;37.410;-122.096;2023-02-19T05:16:32;18.80;66.90
33508;DHT22;25568;37.410;-122.096;2023-02-19T05:19:01;18.80;67.00
33508;DHT22;25568;37.410;-122.096;2023-02-19T05:21:30;18.70;66.90
33508;DHT22;25568;37.410;-122.096;2023-02-19T05:23:59;18.70;67.00
33508;DHT22;25568;37.410;-122.096;2023-02-19T05:26:28;18.80;67.10
33508;DHT22;25568;37.410;-122.096;2023-02-19T05:28:59;18.70;67.10
33508;DHT22;25568;37.410;-122.096;2023-02-19T05:31:29;18.70;67.10
33508;DHT22;25568;37.410;-122.096;2023-02-19T05:33:59;18.70;67.10
33508;DHT22;25568;37.410;-122.096;2023-02-19T05:36:28;18.70;67.10
33508;DHT22;25568;37.410;-122.096;2023-02-19T05:38:57;18.60;67.10
33508;DHT22;25568;37.410;-122.096;2023-02-19T05:41:27;18.60;67.10
33508;DHT22;25568;37.410;-122.096;2023-02-19T05:43:58;18.60;67.10
33508;DHT22;25568;37.410;-122.096;2023-02-19T05:46:29;18.60;67.10
33508;DHT22;25568;37.410;-122.096;2023-02-19T05:48:58;18.60;67.20
33508;DHT22;25568;37.410;-122.096;2023-02-19T05:51:27;18.60;67.20
33508;DHT22;25568;37.410;-122.096;2023-02-19T05:53:56;18.60;67.40
33508;DHT22;25568;37.410;-122.096;2023-02-19T05:56:31;18.60;67.20
33508;DHT22;25568;37.410;-122.096;2023-02-19T05:59:04;18.70;67.10
33508;DHT22;25568;37.410;-122.096;2023-02-19T06:01:34;18.70;66.90
33508;DHT22;25568;37.410;-122.096;2023-02-19T06:04:04;18.80;66.80
33508;DHT22;25568;37.410;-122.096;2023-02-19T06:06:33;18.80;66.70
33508;DHT22;25568;37.410;-122.096;2023-02-19T06:09:03;18.80;66.80
33508;DHT22;25568;37.410;-122.096;2023-02-19T06:11:32;18.90;66.80
33508;DHT22;25568;37.410;-122.096;2023-02-19T06:14:02;18.90;66.80
33508;DHT22;25568;37.410;-122.096;2023-02-19T06:16:31;18.90;66.70
33508;DHT22;25568;37.410;-122.096;2023-02-19T06:19:02;18.90;66.60
33508;DHT22;25568;37.410;-122.096;2023-02-19T06:21:31;18.90;66.50
33508;DHT22;25568;37.410;-122.096;2023-02-19T06:24:04;18.90;66.40
33508;DHT22;25568;37.410;-122.096;2023-02-19T06:26:33;18.90;66.30
33508;DHT22;25568;37.410;-122.096;2023-02-19T06:29:04;19.00;66.40
33508;DHT22;25568;37.410;-122.096;2023-02-19T06:31:33;19.00;66.50
33508;DHT22;25568;37.410;-122.096;2023-02-19T06:34:03;19.00;66.50
33508;DHT22;25568;37.410;-122.096;2023-02-19T06:36:32;19.00;66.60
33508;DHT22;25568;37.410;-122.096;2023-02-19T06:39:02;19.00;66.70
33508;DHT22;25568;37.410;-122.096;2023-02-19T06:41:32;19.00;66.80
33508;DHT22;25568;37.410;-122.096;2023-02-19T06:44:01;19.00;66.90
33508;DHT22;25568;37.410;-122.096;2023-02-19T06:46:31;19.00;66.90
33508;DHT22;25568;37.410;-122.096;2023-02-19T06:49:02;19.00;66.80
33508;DHT22;25568;37.410;-122.096;2023-02-19T06:51:31;19.10;66.80
33508;DHT22;25568;37.410;-122.096;2023-02-19T06:54:00;19.10;66.60
33508;DHT22;25568;37.410;-122.096;2023-02-19T06:56:31;19.10;66.50
33508;DHT22;25568;37.410;-122.096;2023-02-19T06:59:01;19.10;66.00
33508;DHT22;25568;37.410;-122.096;2023-02-19T07:01:33;19.10;66.10
33508;DHT22;25568;37.410;-122.096;2023-02-19T07:04:02;19.10;65.90
33508;DHT22;25568;37.410;-122.096;2023-02-19T07:06:32;19.10;65.90
33508;DHT22;25568;37.410;-122.096;2023-02-19T07:09:03;19.10;65.80
33508;DHT22;25568;37.410;-122.096;2023-02-19T07:11:34;19.10;65.80
33508;DHT22;25568;37.410;-122.096;2023-02-19T07:14:05;19.10;65.80
33508;DHT22;25568;37.410;-122.096;2023-02-19T07:16:49;19.10;65.80
33508;DHT22;25568;37.410;-122.096;2023-02-19T07:19:18;19.10;65.80
33508;DHT22;25568;37.410;-122.096;2023-02-19T07:21:47;19.10;65.80
33508;DHT22;25568;37.410;-122.096;2023-02-19T07:24:16;19.10;65.80
33508;DHT22;25568;37.410;-122.096;2023-02-19T07:26:47;19.00;65.90
33508;DHT22;25568;37.410;-122.096;2023-02-19T07:29:16;19.10;65.90
33508;DHT22;25568;37.410;-122.096;2023-02-19T07:31:45;19.10;65.90
33508;DHT22;25568;37.410;-122.096;2023-02-19T07:34:15;19.10;66.00
33508;DHT22;25568;37.410;-122.096;2023-02-19T07:36:44;19.10;66.00
33508;DHT22;25568;37.410;-122.096;2023-02-19T07:39:13;19.00;66.30
33508;DHT22;25568;37.410;-122.096;2023-02-19T07:41:42;19.00;66.50
33508;DHT22;25568;37.410;-122.096;2023-02-19T07:44:11;19.00;66.60
33508;DHT22;25568;37.410;-122.096;2023-02-19T07:46:42;19.00;66.80
33508;DHT22;25568;37.410;-122.096;2023-02-19T07:49:11;19.00;66.80
33508;DHT22;25568;37.410;-122.096;2023-02-19T07:51:41;18.90;66.90
33508;DHT22;25568;37.410;-122.096;2023-02-19T07:54:10;19.00;66.90
33508;DHT22;25568;37.410;-122.096;2023-02-19T07:56:39;18.90;67.00
33508;DHT22;25568;37.410;-122.096;2023-02-19T07:59:08;18.90;67.00
33508;DHT22;25568;37.410;-122.096;2023-02-19T08:01:37;18.90;67.10
33508;DHT22;25568;37.410;-122.096;2023-02-19T08:04:23;18.90;67.20
33508;DHT22;25568;37.410;-122.096;2023-02-19T08:06:54;18.90;67.10
33508;DHT22;25568;37.410;-122.096;2023-02-19T08:09:23;18.90;67.20
33508;DHT22;25568;37.410;-122.096;2023-02-19T08:11:52;18.80;67.20
33508;DHT22;25568;37.410;-122.096;2023-02-19T08:14:38;18.80;67.20
33508;DHT22;25568;37.410;-122.096;2023-02-19T08:17:06;18.70;67.20
33508;DHT22;25568;37.410;-122.096;2023-02-19T08:19:35;18.70;67.30
33508;DHT22;25568;37.410;-122.096;2023-02-19T08:22:06;18.60;67.30
33508;DHT22;25568;37.410;-122.096;2023-02-19T08:24:35;18.60;67.40
33508;DHT22;25568;37.410;-122.096;2023-02-19T08:27:08;18.50;67.60
33508;DHT22;25568;37.410;-122.096;2023-02-19T08:29:37;18.50;67.80
33508;DHT22;25568;37.410;-122.096;2023-02-19T08:32:06;18.50;68.70
33508;DHT22;25568;37.410;-122.096;2023-02-19T08:34:35;18.50;68.20
33508;DHT22;25568;37.410;-122.096;2023-02-19T08:37:05;18.40;68.20
33508;DHT22;25568;37.410;-122.096;2023-02-19T08:39:34;18.40;68.20
33508;DHT22;25568;37.410;-122.096;2023-02-19T08:42:03;18.40;68.60
33508;DHT22;25568;37.410;-122.096;2023-02-19T08:44:32;18.30;68.70
33508;DHT22;25568;37.410;-122.096;2023-02-19T08:47:02;18.40;69.50
33508;DHT22;25568;37.410;-122.096;2023-02-19T08:49:31;18.30;69.00
33508;DHT22;25568;37.410;-122.096;2023-02-19T08:52:00;18.30;69.20
33508;DHT22;25568;37.410;-122.096;2023-02-19T08:54:30;18.40;69.50
33508;DHT22;25568;37.410;-122.096;2023-02-19T08:56:59;18.30;69.20
33508;DHT22;25568;37.410;-122.096;2023-02-19T08:59:29;18.30;69.50
33508;DHT22;25568;37.410;-122.096;2023-02-19T09:01:58;18.30;69.50
33508;DHT22;25568;37.410;-122.096;2023-02-19T09:04:27;18.40;69.70
33508;DHT22;25568;37.410;-122.096;2023-02-19T09:06:56;18.30;69.90
33508;DHT22;25568;37.410;-122.096;2023-02-19T09:09:25;18.30;69.90
33508;DHT22;25568;37.410;-122.096;2023-02-19T09:11:55;18.30;70.00
33508;DHT22;25568;37.410;-122.096;2023-02-19T09:14:24;18.40;70.30
33508;DHT22;25568;37.410;-122.096;2023-02-19T09:16:53;18.30;70.40
33508;DHT22;25568;37.410;-122.096;2023-02-19T09:19:22;18.30;70.70
33508;DHT22;25568;37.410;-122.096;2023-02-19T09:21:52;18.30;70.90
33508;DHT22;25568;37.410;-122.096;2023-02-19T09:24:21;18.30;70.90
33508;DHT22;25568;37.410;-122.096;2023-02-19T09:26:50;18.40;70.90
33508;DHT22;25568;37.410;-122.096;2023-02-19T09:29:23;18.30;70.90
33508;DHT22;25568;37.410;-122.096;2023-02-19T09:31:55;18.30;71.00
33508;DHT22;25568;37.410;-122.096;2023-02-19T09:34:25;18.30;70.90
33508;DHT22;25568;37.410;-122.096;2023-02-19T09:36:54;18.30;71.20
33508;DHT22;25568;37.410;-122.096;2023-02-19T09:39:23;18.30;71.10
33508;DHT22;25568;37.410;-122.096;2023-02-19T09:41:55;18.30;71.20
33508;DHT22;25568;37.410;-122.096;2023-02-19T09:44:29;18.30;71.30
33508;DHT22;25568;37.410;-122.096;2023-02-19T09:47:00;18.30;71.40
33508;DHT22;25568;37.410;-122.096;2023-02-19T09:49:33;18.30;71.70
33508;DHT22;25568;37.410;-122.096;2023-02-19T09:52:06;18.30;71.70
33508;DHT22;25568;37.410;-122.096;2023-02-19T09:54:37;18.30;71.90
33508;DHT22;25568;37.410;-122.096;2023-02-19T09:57:12;18.30;71.80
33508;DHT22;25568;37.410;-122.096;2023-02-19T09:59:47;18.30;71.70
33508;DHT22;25568;37.410;-122.096;2023-02-19T10:02:29;18.20;71.60
33508;DHT22;25568;37.410;-122.096;2023-02-19T10:04:59;18.20;71.80
33508;DHT22;25568;37.410;-122.096;2023-02-19T10:07:35;18.10;71.90
33508;DHT22;25568;37.410;-122.096;2023-02-19T10:10:23;18.10;72.00
33508;DHT22;25568;37.410;-122.096;2023-02-19T10:12:56;18.00;72.00
33508;DHT22;25568;37.410;-122.096;2023-02-19T10:15:32;18.00;72.20
33508;DHT22;25568;37.410;-122.096;2023-02-19T10:18:03;18.00;72.80
33508;DHT22;25568;37.410;-122.096;2023-02-19T10:20:33;18.00;72.80
33508;DHT22;25568;37.410;-122.096;2023-02-19T10:23:03;17.90;73.60
33508;DHT22;25568;37.410;-122.096;2023-02-19T10:25:33;18.00;74.00
33508;DHT22;25568;37.410;-122.096;2023-02-19T10:28:03;17.90;74.40
33508;DHT22;25568;37.410;-122.096;2023-02-19T10:30:35;17.90;74.90
33508;DHT22;25568;37.410;-122.096;2023-02-19T10:33:09;17.90;74.50
33508;DHT22;25568;37.410;-122.096;2023-02-19T10:35:52;17.90;74.80
33508;DHT22;25568;37.410;-122.096;2023-02-19T10:38:23;18.00;74.60
33508;DHT22;25568;37.410;-122.096;2023-02-19T10:40:59;17.90;74.60
33508;DHT22;25568;37.410;-122.096;2023-02-19T10:43:30;18.00;75.00
33508;DHT22;25568;37.410;-122.096;2023-02-19T10:46:05;18.00;74.90
33508;DHT22;25568;37.410;-122.096;2023-02-19T10:48:36;17.90;75.00
33508;DHT22;25568;37.410;-122.096;2023-02-19T10:51:07;17.90;75.00
33508;DHT22;25568;37.410;-122.096;2023-02-19T10:53:42;17.90;75.60
33508;DHT22;25568;37.410;-122.096;2023-02-19T10:56:13;18.00;75.60
33508;DHT22;25568;37.410;-122.096;2023-02-19T10:58:43;18.00;75.60
33508;DHT22;25568;37.410;-122.096;2023-02-19T11:01:16;18.00;75.80
33508;DHT22;25568;37.410;-122.096;2023-02-19T11:03:51;18.00;75.80
33508;DHT22;25568;37.410;-122.096;2023-02-19T11:06:24;18.00;75.90
33508;DHT22;25568;37.410;-122.096;2023-02-19T11:08:55;18.00;75.80
33508;DHT22;25568;37.410;-122.096;2023-02-19T11:11:33;18.00;76.00
33508;DHT22;25568;37.410;-122.096;2023-02-19T11:14:10;18.00;76.10
33508;DHT22;25568;37.410;-122.096;2023-02-19T11:16:44;18.00;76.10
33508;DHT22;25568;37.410;-122.096;2023-02-19T11:19:32;18.00;76.40
33508;DHT22;25568;37.410;-122.096;2023-02-19T11:22:16;18.00;76.40
33508;DHT22;25568;37.410;-122.096;2023-02-19T11:24:48;18.00;76.80
33508;DHT22;25568;37.410;-122.096;2023-02-19T11:27:20;18.00;77.00
33508;DHT22;25568;37.410;-122.096;2023-02-19T11:29:49;18.00;77.20
33508;DHT22;25568;37.410;-122.096;2023-02-19T11:32:29;18.00;77.40
33508;DHT22;25568;37.410;-122.096;2023-02-19T11:35:15;18.00;77.50
33508;DHT22;25568;37.410;-122.096;2023-02-19T11:37:55;18.00;77.60
33508;DHT22;25568;37.410;-122.096;2023-02-19T11:40:36;18.00;77.60
33508;DHT22;25568;37.410;-122.096;2023-02-19T11:43:17;18.00;77.90
33508;DHT22;25568;37.410;-122.096;2023-02-19T11:45:52;18.00;77.90
33508;DHT22;25568;37.410;-122.096;2023-02-19T11:48:48;18.00;78.20
33508;DHT22;25568;37.410;-122.096;2023-02-19T11:54:25;18.00;78.20
33508;DHT22;25568;37.410;-122.096;2023-02-19T11:57:01;18.10;78.10
33508;DHT22;25568;37.410;-122.096;2023-02-19T11:59:39;18.10;77.70
33508;DHT22;25568;37.410;-122.096;2023-02-19T12:02:34;18.10;77.90
33508;DHT22;25568;37.410;-122.096;2023-02-19T12:05:29;18.00;77.40
33508;DHT22;25568;37.410;-122.096;2023-02-19T12:08:25;18.00;77.30
33508;DHT22;25568;37.410;-122.096;2023-02-19T12:11:14;17.90;77.20
33508;DHT22;25568;37.410;-122.096;2023-02-19T12:14:06;17.80;77.20
33508;DHT22;25568;37.410;-122.096;2023-02-19T12:16:41;17.80;77.60
33508;DHT22;25568;37.410;-122.096;2023-02-19T12:19:30;17.80;77.40
33508;DHT22;25568;37.410;-122.096;2023-02-19T12:22:17;17.80;77.70
33508;DHT22;25568;37.410;-122.096;2023-02-19T12:34:07;17.70;77.60
33508;DHT22;25568;37.410;-122.096;2023-02-19T12:36:45;17.70;77.50
33508;DHT22;25568;37.410;-122.096;2023-02-19T12:39:24;17.70;77.60
33508;DHT22;25568;37.410;-122.096;2023-02-19T12:42:01;17.70;77.70
33508;DHT22;25568;37.410;-122.096;2023-02-19T12:44:37;17.70;77.50
33508;DHT22;25568;37.410;-122.096;2023-02-19T12:47:07;17.60;77.60
33508;DHT22;25568;37.410;-122.096;2023-02-19T12:49:44;17.70;77.60
33508;DHT22;25568;37.410;-122.096;2023-02-19T12:52:19;17.70;78.40
33508;DHT22;25568;37.410;-122.096;2023-02-19T12:54:53;17.70;78.10
33508;DHT22;25568;37.410;-122.096;2023-02-19T12:57:25;17.70;78.20
33508;DHT22;25568;37.410;-122.096;2023-02-19T12:59:58;17.70;78.40
33508;DHT22;25568;37.410;-122.096;2023-02-19T13:02:34;17.70;78.50
33508;DHT22;25568;37.410;-122.096;2023-02-19T13:05:17;17.70;78.50
33508;DHT22;25568;37.410;-122.096;2023-02-19T13:07:56;17.70;78.40
33508;DHT22;25568;37.410;-122.096;2023-02-19T13:10:32;17.60;78.50
33508;DHT22;25568;37.410;-122.096;2023-02-19T13:13:06;17.60;78.50
33508;DHT22;25568;37.410;-122.096;2023-02-19T13:15:39;17.60;78.50
33508;DHT22;25568;37.410;-122.096;2023-02-19T13:18:15;17.70;78.60
33508;DHT22;25568;37.410;-122.096;2023-02-19T13:20:47;17.60;78.50
33508;DHT22;25568;37.410;-122.096;2023-02-19T13:23:21;17.60;78.50
33508;DHT22;25568;37.410;-122.096;2023-02-19T13:26:25;17.60;78.60
33508;DHT22;25568;37.410;-122.096;2023-02-19T13:29:15;17.60;78.60
33508;DHT22;25568;37.410;-122.096;2023-02-19T13:32:20;17.70;78.60
33508;DHT22;25568;37.410;-122.096;2023-02-19T13:35:01;17.60;78.40
33508;DHT22;25568;37.410;-122.096;2023-02-19T13:37:33;17.60;78.30
33508;DHT22;25568;37.410;-122.096;2023-02-19T13:40:04;17.60;78.20
33508;DHT22;25568;37.410;-122.096;2023-02-19T13:42:36;17.60;78.20
33508;DHT22;25568;37.410;-122.096;2023-02-19T13:45:06;17.60;78.10
33508;DHT22;25568;37.410;-122.096;2023-02-19T13:47:56;17.60;78.20
33508;DHT22;25568;37.410;-122.096;2023-02-19T13:50:27;17.60;78.10
33508;DHT22;25568;37.410;-122.096;2023-02-19T13:52:56;17.60;78.10
33508;DHT22;25568;37.410;-122.096;2023-02-19T13:55:48;17.60;78.10
33508;DHT22;25568;37.410;-122.096;2023-02-19T14:04:47;17.60;78.10
33508;DHT22;25568;37.410;-122.096;2023-02-19T14:07:36;17.60;78.10
33508;DHT22;25568;37.410;-122.096;2023-02-19T14:10:12;17.50;78.10
33508;DHT22;25568;37.410;-122.096;2023-02-19T14:12:41;17.40;78.10
33508;DHT22;25568;37.410;-122.096;2023-02-19T14:15:39;17.40;78.30
33508;DHT22;25568;37.410;-122.096;2023-02-19T14:18:40;17.40;78.40
33508;DHT22;25568;37.410;-122.096;2023-02-19T14:21:16;17.30;78.60
33508;DHT22;25568;37.410;-122.096;2023-02-19T14:23:51;17.30;79.00
33508;DHT22;25568;37.410;-122.096;2023-02-19T14:26:21;17.30;79.10
33508;DHT22;25568;37.410;-122.096;2023-02-19T14:28:53;17.30;78.60
33508;DHT22;25568;37.410;-122.096;2023-02-19T14:31:27;17.30;78.70
33508;DHT22;25568;37.410;-122.096;2023-02-19T14:33:58;17.30;78.60
33508;DHT22;25568;37.410;-122.096;2023-02-19T14:36:38;17.30;78.60
33508;DHT22;25568;37.410;-122.096;2023-02-19T14:39:12;17.30;78.90
33508;DHT22;25568;37.410;-122.096;2023-02-19T14:41:46;17.40;79.00
33508;DHT22;25568;37.410;-122.096;2023-02-19T14:44:18;17.30;79.00
33508;DHT22;25568;37.410;-122.096;2023-02-19T14:46:55;17.30;79.00
33508;DHT22;25568;37.410;-122.096;2023-02-19T14:49:28;17.30;79.00
33508;DHT22;25568;37.410;-122.096;2023-02-19T14:52:00;17.30;78.90
33508;DHT22;25568;37.410;-122.096;2023-02-19T14:54:42;17.30;79.00
33508;DHT22;25568;37.410;-122.096;2023-02-19T14:57:17;17.30;78.90
33508;DHT22;25568;37.410;-122.096;2023-02-19T14:59:55;17.30;78.90
33508;DHT22;25568;37.410;-122.096;2023-02-19T15:02:27;17.30;78.80
33508;DHT22;25568;37.410;-122.096;2023-02-19T15:04:56;17.30;78.80
33508;DHT22;25568;37.410;-122.096;2023-02-19T15:07:29;17.30;78.70
33508;DHT22;25568;37.410;-122.096;2023-02-19T15:10:01;17.30;78.80
33508;DHT22;25568;37.410;-122.096;2023-02-19T15:12:33;17.40;78.60
33508;DHT22;25568;37.410;-122.096;2023-02-19T15:15:04;17.40;78.10
33508;DHT22;25568;37.410;-122.096;2023-02-19T15:17:36;17.40;77.70
33508;DHT22;25568;37.410;-122.096;2023-02-19T15:20:10;17.30;78.30
33508;DHT22;25568;37.410;-122.096;2023-02-19T15:22:40;17.30;77.20
33508;DHT22;25568;37.410;-122.096;2023-02-19T15:25:15;17.20;77.10
33508;DHT22;25568;37.410;-122.096;2023-02-19T15:27:45;17.10;77.10
33508;DHT22;25568;37.410;-122.096;2023-02-19T15:30:20;17.10;77.10
33508;DHT22;25568;37.410;-122.096;2023-02-19T15:32:55;17.00;76.90
33508;DHT22;25568;37.410;-122.096;2023-02-19T15:35:26;17.00;76.90
33508;DHT22;25568;37.410;-122.096;2023-02-19T15:37:56;16.90;76.80
33508;DHT22;25568;37.410;-122.096;2023-02-19T15:40:28;17.00;76.70
33508;DHT22;25568;37.410;-122.096;2023-02-19T15:42:58;17.10;76.60
33508;DHT22;25568;37.410;-122.096;2023-02-19T15:45:30;17.10;76.70
33508;DHT22;25568;37.410;-122.096;2023-02-19T15:48:04;17.00;76.60